sensor_id;sensor_type;location;lat;lon;timestamp;P1;durP1;ratioP1;P2;durP2;ratioP2
62463;SDS011;48512;48.552;9.380;2024-03-17T00:00:24;13.80;;;6.00;;
62463;SDS011;48512;48.552;9.380;2024-03-17T00:02:50;12.85;;;5.20;;
62463;SDS011;48512;48.552;9.380;2024-03-17T00:05:16;11.63;;;5.13;;
62463;SDS011;48512;48.552;9.380;2024-03-17T00:07:44;12.98;;;5.13;;
62463;SDS011;48512;48.552;9.380;2024-03-17T00:10:10;13.10;;;5.40;;
62463;SDS011;48512;48.552;9.380;2024-03-17T00:12:37;13.40;;;5.15;;
62463;SDS011;48512;48.552;9.380;2024-03-17T00:15:06;12.57;;;5.30;;
62463;SDS011;48512;48.552;9.380;2024-03-17T00:20:00;13.23;;;4.72;;
62463;SDS011;48512;48.552;9.380;2024-03-17T00:22:35;11.95;;;5.28;;
62463;SDS011;48512;48.552;9.380;2024-03-17T00:25:06;10.55;;;5.03;;
62463;SDS011;48512;48.552;9.380;2024-03-17T00:27:33;15.00;;;6.28;;
62463;SDS011;48512;48.552;9.380;2024-03-17T00:30:01;13.60;;;5.85;;
62463;SDS011;48512;48.552;9.380;2024-03-17T00:32:28;11.63;;;5.50;;
62463;SDS011;48512;48.552;9.380;2024-03-17T00:34:55;9.95;;;4.93;;
62463;SDS011;48512;48.552;9.380;2024-03-17T00:37:21;9.35;;;5.05;;
62463;SDS011;48512;48.552;9.380;2024-03-17T00:39:47;9.75;;;4.93;;
62463;SDS011;48512;48.552;9.380;2024-03-17T00:42:13;13.68;;;5.38;;
62463;SDS011;48512;48.552;9.380;2024-03-17T00:44:40;11.18;;;5.30;;
62463;SDS011;48512;48.552;9.380;2024-03-17T00:47:07;16.98;;;5.63;;
62463;SDS011;48512;48.552;9.380;2024-03-17T00:49:33;17.23;;;6.35;;
62463;SDS011;48512;48.552;9.380;2024-03-17T00:52:00;14.95;;;6.30;;
62463;SDS011;48512;48.552;9.380;2024-03-17T00:54:26;17.83;;;6.28;;
62463;SDS011;48512;48.552;9.380;2024-03-17T00:56:52;15.90;;;6.05;;
62463;SDS011;48512;48.552;9.380;2024-03-17T00:59:18;11.32;;;5.22;;
62463;SDS011;48512;48.552;9.380;2024-03-17T01:01:44;14.23;;;5.28;;
62463;SDS011;48512;48.552;9.380;2024-03-17T01:04:10;11.98;;;5.32;;
62463;SDS011;48512;48.552;9.380;2024-03-17T01:06:36;15.00;;;6.05;;
62463;SDS011;48512;48.552;9.380;2024-03-17T01:09:06;11.82;;;5.20;;
62463;SDS011;48512;48.552;9.380;2024-03-17T01:11:34;9.93;;;5.18;;
62463;SDS011;48512;48.552;9.380;2024-03-17T01:14:00;10.35;;;4.47;;
62463;SDS011;48512;48.552;9.380;2024-03-17T01:16:26;11.75;;;4.90;;
62463;SDS011;48512;48.552;9.380;2024-03-17T01:18:52;12.73;;;4.90;;
62463;SDS011;48512;48.552;9.380;2024-03-17T01:21:19;11.32;;;5.00;;
62463;SDS011;48512;48.552;9.380;2024-03-17T01:23:47;9.73;;;5.30;;
62463;SDS011;48512;48.552;9.380;2024-03-17T01:26:14;9.52;;;4.80;;
62463;SDS011;48512;48.552;9.380;2024-03-17T01:28:40;10.50;;;5.47;;
62463;SDS011;48512;48.552;9.380;2024-03-17T01:31:06;10.57;;;5.18;;
62463;SDS011;48512;48.552;9.380;2024-03-17T01:33:33;13.68;;;5.43;;
62463;SDS011;48512;48.552;9.380;2024-03-17T01:35:59;10.27;;;5.22;;
62463;SDS011;48512;48.552;9.380;2024-03-17T01:38:25;10.85;;;4.93;;
62463;SDS011;48512;48.552;9.380;2024-03-17T01:40:51;11.85;;;5.40;;
62463;SDS011;48512;48.552;9.380;2024-03-17T01:43:17;13.55;;;5.80;;
62463;SDS011;48512;48.552;9.380;2024-03-17T01:45:44;9.10;;;4.57;;
62463;SDS011;48512;48.552;9.380;2024-03-17T01:48:13;10.07;;;5.47;;
62463;SDS011;48512;48.552;9.380;2024-03-17T01:50:41;13.75;;;5.50;;
62463;SDS011;48512;48.552;9.380;2024-03-17T01:53:09;11.73;;;6.00;;
62463;SDS011;48512;48.552;9.380;2024-03-17T01:55:39;10.30;;;5.47;;
62463;SDS011;48512;48.552;9.380;2024-03-17T01:58:08;12.95;;;5.40;;
62463;SDS011;48512;48.552;9.380;2024-03-17T02:00:36;12.88;;;5.57;;
62463;SDS011;48512;48.552;9.380;2024-03-17T02:03:04;11.13;;;5.75;;
62463;SDS011;48512;48.552;9.380;2024-03-17T02:05:37;11.00;;;6.03;;
62463;SDS011;48512;48.552;9.380;2024-03-17T02:08:05;13.50;;;5.72;;
62463;SDS011;48512;48.552;9.380;2024-03-17T02:10:32;11.10;;;5.65;;
62463;SDS011;48512;48.552;9.380;2024-03-17T02:13:00;10.65;;;5.10;;
62463;SDS011;48512;48.552;9.380;2024-03-17T02:15:26;10.98;;;5.13;;
62463;SDS011;48512;48.552;9.380;2024-03-17T02:17:53;10.63;;;5.53;;
62463;SDS011;48512;48.552;9.380;2024-03-17T02:20:19;11.60;;;6.07;;
62463;SDS011;48512;48.552;9.380;2024-03-17T02:22:48;10.50;;;5.03;;
62463;SDS011;48512;48.552;9.380;2024-03-17T02:25:14;14.60;;;5.70;;
62463;SDS011;48512;48.552;9.380;2024-03-17T02:27:40;11.73;;;5.40;;
62463;SDS011;48512;48.552;9.380;2024-03-17T02:30:06;14.27;;;5.95;;
62463;SDS011;48512;48.552;9.380;2024-03-17T02:32:35;12.25;;;6.10;;
62463;SDS011;48512;48.552;9.380;2024-03-17T02:35:01;10.32;;;5.65;;
62463;SDS011;48512;48.552;9.380;2024-03-17T02:37:28;12.73;;;5.88;;
62463;SDS011;48512;48.552;9.380;2024-03-17T02:39:54;11.63;;;5.45;;
62463;SDS011;48512;48.552;9.380;2024-03-17T02:42:20;10.80;;;5.60;;
62463;SDS011;48512;48.552;9.380;2024-03-17T02:44:46;11.18;;;6.05;;
62463;SDS011;48512;48.552;9.380;2024-03-17T02:47:12;11.30;;;5.70;;
62463;SDS011;48512;48.552;9.380;2024-03-17T02:49:40;9.13;;;5.50;;
62463;SDS011;48512;48.552;9.380;2024-03-17T02:52:09;9.30;;;5.32;;
62463;SDS011;48512;48.552;9.380;2024-03-17T02:54:36;11.75;;;5.85;;
62463;SDS011;48512;48.552;9.380;2024-03-17T02:57:03;12.80;;;5.85;;
62463;SDS011;48512;48.552;9.380;2024-03-17T02:59:30;11.18;;;5.82;;
62463;SDS011;48512;48.552;9.380;2024-03-17T03:01:57;9.73;;;5.25;;
62463;SDS011;48512;48.552;9.380;2024-03-17T03:04:25;9.52;;;5.70;;
62463;SDS011;48512;48.552;9.380;2024-03-17T03:06:51;8.57;;;5.65;;
62463;SDS011;48512;48.552;9.380;2024-03-17T03:09:17;10.55;;;5.32;;
62463;SDS011;48512;48.552;9.380;2024-03-17T03:11:51;9.38;;;5.15;;
62463;SDS011;48512;48.552;9.380;2024-03-17T03:14:19;11.57;;;5.85;;
62463;SDS011;48512;48.552;9.380;2024-03-17T03:16:45;12.93;;;6.20;;
62463;SDS011;48512;48.552;9.380;2024-03-17T03:19:11;9.93;;;5.18;;
62463;SDS011;48512;48.552;9.380;2024-03-17T03:21:37;11.00;;;5.47;;
62463;SDS011;48512;48.552;9.380;2024-03-17T03:24:03;10.40;;;5.28;;
62463;SDS011;48512;48.552;9.380;2024-03-17T03:26:29;11.77;;;6.65;;
62463;SDS011;48512;48.552;9.380;2024-03-17T03:28:55;10.32;;;5.45;;
62463;SDS011;48512;48.552;9.380;2024-03-17T03:31:22;14.05;;;5.80;;
62463;SDS011;48512;48.552;9.380;2024-03-17T03:33:48;12.10;;;6.22;;
62463;SDS011;48512;48.552;9.380;2024-03-17T03:36:14;12.77;;;6.63;;
62463;SDS011;48512;48.552;9.380;2024-03-17T03:38:42;12.63;;;6.38;;
62463;SDS011;48512;48.552;9.380;2024-03-17T03:41:15;13.20;;;6.57;;
62463;SDS011;48512;48.552;9.380;2024-03-17T03:43:42;12.25;;;6.32;;
62463;SDS011;48512;48.552;9.380;2024-03-17T03:46:09;13.43;;;6.22;;
62463;SDS011;48512;48.552;9.380;2024-03-17T03:48:35;12.73;;;6.40;;
62463;SDS011;48512;48.552;9.380;2024-03-17T03:51:07;12.75;;;6.68;;
62463;SDS011;48512;48.552;9.380;2024-03-17T03:53:35;15.30;;;6.30;;
62463;SDS011;48512;48.552;9.380;2024-03-17T03:56:04;13.27;;;6.55;;
62463;SDS011;48512;48.552;9.380;2024-03-17T03:58:36;13.60;;;6.53;;
62463;SDS011;48512;48.552;9.380;2024-03-17T04:01:07;14.20;;;7.00;;
62463;SDS011;48512;48.552;9.380;2024-03-17T04:03:34;16.67;;;7.25;;
62463;SDS011;48512;48.552;9.380;2024-03-17T04:06:04;15.80;;;7.60;;
62463;SDS011;48512;48.552;9.380;2024-03-17T04:08:37;15.00;;;6.97;;
62463;SDS011;48512;48.552;9.380;2024-03-17T04:11:07;11.55;;;5.65;;
62463;SDS011;48512;48.552;9.380;2024-03-17T04:13:33;14.20;;;5.57;;
62463;SDS011;48512;48.552;9.380;2024-03-17T04:16:00;10.10;;;5.55;;
62463;SDS011;48512;48.552;9.380;2024-03-17T04:20:56;12.75;;;5.43;;
62463;SDS011;48512;48.552;9.380;2024-03-17T04:23:23;9.82;;;4.90;;
62463;SDS011;48512;48.552;9.380;2024-03-17T04:25:50;10.95;;;5.20;;
62463;SDS011;48512;48.552;9.380;2024-03-17T04:28:17;11.57;;;5.85;;
62463;SDS011;48512;48.552;9.380;2024-03-17T04:30:43;13.32;;;5.45;;
62463;SDS011;48512;48.552;9.380;2024-03-17T04:33:10;12.15;;;4.93;;
62463;SDS011;48512;48.552;9.380;2024-03-17T04:35:37;8.05;;;4.68;;
62463;SDS011;48512;48.552;9.380;2024-03-17T04:38:04;10.18;;;5.00;;
62463;SDS011;48512;48.552;9.380;2024-03-17T04:40:34;8.18;;;4.40;;
62463;SDS011;48512;48.552;9.380;2024-03-17T04:45:27;7.40;;;4.35;;
62463;SDS011;48512;48.552;9.380;2024-03-17T04:47:53;8.43;;;4.35;;
62463;SDS011;48512;48.552;9.380;2024-03-17T04:50:19;9.55;;;4.68;;
62463;SDS011;48512;48.552;9.380;2024-03-17T04:52:47;7.85;;;4.35;;
62463;SDS011;48512;48.552;9.380;2024-03-17T04:55:13;9.60;;;4.22;;
62463;SDS011;48512;48.552;9.380;2024-03-17T04:57:39;10.98;;;5.32;;
62463;SDS011;48512;48.552;9.380;2024-03-17T05:00:05;11.60;;;5.30;;
62463;SDS011;48512;48.552;9.380;2024-03-17T05:02:38;11.25;;;5.72;;
62463;SDS011;48512;48.552;9.380;2024-03-17T05:05:05;15.90;;;8.82;;
62463;SDS011;48512;48.552;9.380;2024-03-17T05:07:32;20.38;;;10.05;;
62463;SDS011;48512;48.552;9.380;2024-03-17T05:09:58;18.02;;;10.18;;
62463;SDS011;48512;48.552;9.380;2024-03-17T05:12:25;22.63;;;9.60;;
62463;SDS011;48512;48.552;9.380;2024-03-17T05:14:51;22.10;;;10.18;;
62463;SDS011;48512;48.552;9.380;2024-03-17T05:17:17;16.50;;;9.10;;
62463;SDS011;48512;48.552;9.380;2024-03-17T05:19:43;17.48;;;8.82;;
62463;SDS011;48512;48.552;9.380;2024-03-17T05:22:09;18.17;;;8.70;;
62463;SDS011;48512;48.552;9.380;2024-03-17T05:24:36;16.00;;;7.35;;
62463;SDS011;48512;48.552;9.380;2024-03-17T05:27:02;11.90;;;5.70;;
62463;SDS011;48512;48.552;9.380;2024-03-17T05:29:29;12.90;;;4.93;;
62463;SDS011;48512;48.552;9.380;2024-03-17T05:31:55;11.80;;;5.15;;
62463;SDS011;48512;48.552;9.380;2024-03-17T05:34:21;9.98;;;4.90;;
62463;SDS011;48512;48.552;9.380;2024-03-17T05:36:50;12.70;;;4.78;;
62463;SDS011;48512;48.552;9.380;2024-03-17T05:39:16;7.38;;;4.38;;
62463;SDS011;48512;48.552;9.380;2024-03-17T05:41:43;9.73;;;5.28;;
62463;SDS011;48512;48.552;9.380;2024-03-17T05:44:15;9.63;;;5.05;;
62463;SDS011;48512;48.552;9.380;2024-03-17T05:46:41;8.90;;;4.47;;
62463;SDS011;48512;48.552;9.380;2024-03-17T05:49:08;8.77;;;5.22;;
62463;SDS011;48512;48.552;9.380;2024-03-17T05:51:34;9.88;;;5.43;;
62463;SDS011;48512;48.552;9.380;2024-03-17T05:54:00;9.45;;;4.78;;
62463;SDS011;48512;48.552;9.380;2024-03-17T05:56:26;9.05;;;4.80;;
62463;SDS011;48512;48.552;9.380;2024-03-17T05:58:52;10.40;;;5.00;;
62463;SDS011;48512;48.552;9.380;2024-03-17T06:01:18;8.80;;;5.40;;
62463;SDS011;48512;48.552;9.380;2024-03-17T06:03:45;20.73;;;10.00;;
62463;SDS011;48512;48.552;9.380;2024-03-17T06:06:11;25.25;;;10.60;;
62463;SDS011;48512;48.552;9.380;2024-03-17T06:08:38;16.92;;;8.55;;
62463;SDS011;48512;48.552;9.380;2024-03-17T06:11:07;15.98;;;7.28;;
62463;SDS011;48512;48.552;9.380;2024-03-17T06:13:34;11.25;;;6.13;;
62463;SDS011;48512;48.552;9.380;2024-03-17T06:16:03;12.93;;;5.90;;
62463;SDS011;48512;48.552;9.380;2024-03-17T06:18:30;12.57;;;6.43;;
62463;SDS011;48512;48.552;9.380;2024-03-17T06:20:57;15.40;;;6.25;;
62463;SDS011;48512;48.552;9.380;2024-03-17T06:23:24;25.60;;;10.85;;
62463;SDS011;48512;48.552;9.380;2024-03-17T06:25:52;30.17;;;11.23;;
62463;SDS011;48512;48.552;9.380;2024-03-17T06:28:21;23.65;;;11.63;;
62463;SDS011;48512;48.552;9.380;2024-03-17T06:30:56;24.60;;;11.73;;
62463;SDS011;48512;48.552;9.380;2024-03-17T06:33:28;20.55;;;11.80;;
62463;SDS011;48512;48.552;9.380;2024-03-17T06:35:54;22.45;;;11.60;;
62463;SDS011;48512;48.552;9.380;2024-03-17T06:38:21;24.95;;;12.30;;
62463;SDS011;48512;48.552;9.380;2024-03-17T06:40:47;33.42;;;16.48;;
62463;SDS011;48512;48.552;9.380;2024-03-17T06:43:15;31.05;;;15.55;;
62463;SDS011;48512;48.552;9.380;2024-03-17T06:45:42;27.38;;;14.55;;
62463;SDS011;48512;48.552;9.380;2024-03-17T06:48:08;34.67;;;14.35;;
62463;SDS011;48512;48.552;9.380;2024-03-17T06:50:34;27.30;;;13.68;;
62463;SDS011;48512;48.552;9.380;2024-03-17T06:53:00;25.23;;;12.05;;
62463;SDS011;48512;48.552;9.380;2024-03-17T06:55:26;24.55;;;12.10;;
62463;SDS011;48512;48.552;9.380;2024-03-17T06:57:53;19.15;;;10.98;;
62463;SDS011;48512;48.552;9.380;2024-03-17T07:00:19;19.48;;;9.30;;
62463;SDS011;48512;48.552;9.380;2024-03-17T07:02:50;25.17;;;10.30;;
62463;SDS011;48512;48.552;9.380;2024-03-17T07:05:17;16.50;;;6.97;;
62463;SDS011;48512;48.552;9.380;2024-03-17T07:07:44;11.93;;;6.10;;
62463;SDS011;48512;48.552;9.380;2024-03-17T07:10:11;11.40;;;6.32;;
62463;SDS011;48512;48.552;9.380;2024-03-17T07:12:38;10.75;;;6.65;;
62463;SDS011;48512;48.552;9.380;2024-03-17T07:15:04;28.25;;;14.27;;
62463;SDS011;48512;48.552;9.380;2024-03-17T07:17:31;22.77;;;11.90;;
62463;SDS011;48512;48.552;9.380;2024-03-17T07:19:58;18.92;;;8.82;;
62463;SDS011;48512;48.552;9.380;2024-03-17T07:22:24;12.98;;;6.68;;
62463;SDS011;48512;48.552;9.380;2024-03-17T07:24:52;13.52;;;7.03;;
62463;SDS011;48512;48.552;9.380;2024-03-17T07:27:22;16.70;;;8.32;;
62463;SDS011;48512;48.552;9.380;2024-03-17T07:29:48;21.40;;;10.40;;
62463;SDS011;48512;48.552;9.380;2024-03-17T07:32:15;20.45;;;9.02;;
62463;SDS011;48512;48.552;9.380;2024-03-17T07:34:41;22.67;;;11.07;;
62463;SDS011;48512;48.552;9.380;2024-03-17T07:37:07;20.90;;;9.43;;
62463;SDS011;48512;48.552;9.380;2024-03-17T07:39:33;16.60;;;7.90;;
62463;SDS011;48512;48.552;9.380;2024-03-17T07:41:59;15.02;;;7.78;;
62463;SDS011;48512;48.552;9.380;2024-03-17T07:44:30;14.85;;;7.18;;
62463;SDS011;48512;48.552;9.380;2024-03-17T07:47:03;15.82;;;8.55;;
62463;SDS011;48512;48.552;9.380;2024-03-17T07:49:30;17.83;;;7.07;;
62463;SDS011;48512;48.552;9.380;2024-03-17T07:51:57;15.15;;;6.68;;
62463;SDS011;48512;48.552;9.380;2024-03-17T07:54:23;13.80;;;7.55;;
62463;SDS011;48512;48.552;9.380;2024-03-17T07:56:50;22.95;;;11.48;;
62463;SDS011;48512;48.552;9.380;2024-03-17T07:59:17;22.50;;;12.57;;
62463;SDS011;48512;48.552;9.380;2024-03-17T08:01:44;28.10;;;12.73;;
62463;SDS011;48512;48.552;9.380;2024-03-17T08:04:10;24.70;;;13.43;;
62463;SDS011;48512;48.552;9.380;2024-03-17T08:06:38;23.00;;;11.52;;
62463;SDS011;48512;48.552;9.380;2024-03-17T08:09:07;24.63;;;13.10;;
62463;SDS011;48512;48.552;9.380;2024-03-17T08:11:34;23.02;;;12.15;;
62463;SDS011;48512;48.552;9.380;2024-03-17T08:14:01;26.90;;;13.32;;
62463;SDS011;48512;48.552;9.380;2024-03-17T08:16:27;25.27;;;13.13;;
62463;SDS011;48512;48.552;9.380;2024-03-17T08:18:55;27.10;;;13.38;;
62463;SDS011;48512;48.552;9.380;2024-03-17T08:21:22;26.67;;;11.50;;
62463;SDS011;48512;48.552;9.380;2024-03-17T08:23:48;26.00;;;13.07;;
62463;SDS011;48512;48.552;9.380;2024-03-17T08:26:14;27.83;;;13.75;;
62463;SDS011;48512;48.552;9.380;2024-03-17T08:28:40;32.95;;;13.77;;
62463;SDS011;48512;48.552;9.380;2024-03-17T08:31:07;23.35;;;12.38;;
62463;SDS011;48512;48.552;9.380;2024-03-17T08:33:36;28.23;;;14.18;;
62463;SDS011;48512;48.552;9.380;2024-03-17T08:36:02;25.38;;;13.40;;
62463;SDS011;48512;48.552;9.380;2024-03-17T08:38:36;27.50;;;13.13;;
62463;SDS011;48512;48.552;9.380;2024-03-17T08:41:03;25.73;;;11.80;;
62463;SDS011;48512;48.552;9.380;2024-03-17T08:43:33;22.05;;;10.32;;
62463;SDS011;48512;48.552;9.380;2024-03-17T08:46:07;19.13;;;9.32;;
62463;SDS011;48512;48.552;9.380;2024-03-17T08:48:35;19.70;;;9.60;;
62463;SDS011;48512;48.552;9.380;2024-03-17T08:51:03;20.30;;;9.57;;
62463;SDS011;48512;48.552;9.380;2024-03-17T08:53:30;17.60;;;9.65;;
62463;SDS011;48512;48.552;9.380;2024-03-17T08:55:57;17.92;;;9.30;;
62463;SDS011;48512;48.552;9.380;2024-03-17T08:58:24;17.00;;;9.45;;
62463;SDS011;48512;48.552;9.380;2024-03-17T09:00:51;19.52;;;11.10;;
62463;SDS011;48512;48.552;9.380;2024-03-17T09:03:17;24.08;;;11.77;;
62463;SDS011;48512;48.552;9.380;2024-03-17T09:05:45;26.70;;;13.32;;
62463;SDS011;48512;48.552;9.380;2024-03-17T09:08:21;22.33;;;11.68;;
62463;SDS011;48512;48.552;9.380;2024-03-17T09:10:48;19.40;;;11.50;;
62463;SDS011;48512;48.552;9.380;2024-03-17T09:13:19;20.17;;;10.43;;
62463;SDS011;48512;48.552;9.380;2024-03-17T09:18:41;19.02;;;10.27;;
62463;SDS011;48512;48.552;9.380;2024-03-17T09:21:07;89.03;;;25.63;;
62463;SDS011;48512;48.552;9.380;2024-03-17T09:23:34;59.38;;;20.75;;
62463;SDS011;48512;48.552;9.380;2024-03-17T09:26:04;57.50;;;19.13;;
62463;SDS011;48512;48.552;9.380;2024-03-17T09:28:34;37.33;;;12.40;;
62463;SDS011;48512;48.552;9.380;2024-03-17T09:31:01;36.25;;;12.30;;
62463;SDS011;48512;48.552;9.380;2024-03-17T09:33:29;19.65;;;8.80;;
62463;SDS011;48512;48.552;9.380;2024-03-17T09:35:56;13.73;;;6.70;;
62463;SDS011;48512;48.552;9.380;2024-03-17T09:38:23;13.35;;;7.28;;
62463;SDS011;48512;48.552;9.380;2024-03-17T09:40:49;11.30;;;6.35;;
62463;SDS011;48512;48.552;9.380;2024-03-17T09:43:19;15.02;;;7.88;;
62463;SDS011;48512;48.552;9.380;2024-03-17T09:45:46;35.08;;;17.85;;
62463;SDS011;48512;48.552;9.380;2024-03-17T09:48:16;23.98;;;13.73;;
62463;SDS011;48512;48.552;9.380;2024-03-17T09:53:22;10.45;;;6.03;;
62463;SDS011;48512;48.552;9.380;2024-03-17T09:55:59;12.48;;;5.72;;
62463;SDS011;48512;48.552;9.380;2024-03-17T09:58:35;14.60;;;6.82;;
62463;SDS011;48512;48.552;9.380;2024-03-17T10:01:01;12.75;;;6.47;;
62463;SDS011;48512;48.552;9.380;2024-03-17T10:06:06;10.43;;;5.43;;
62463;SDS011;48512;48.552;9.380;2024-03-17T10:08:32;11.23;;;5.43;;
62463;SDS011;48512;48.552;9.380;2024-03-17T10:11:00;11.18;;;5.85;;
62463;SDS011;48512;48.552;9.380;2024-03-17T10:13:26;9.70;;;5.85;;
62463;SDS011;48512;48.552;9.380;2024-03-17T10:15:52;8.75;;;5.03;;
62463;SDS011;48512;48.552;9.380;2024-03-17T10:18:22;10.18;;;5.60;;
62463;SDS011;48512;48.552;9.380;2024-03-17T10:20:51;8.82;;;4.95;;
62463;SDS011;48512;48.552;9.380;2024-03-17T10:23:24;8.75;;;4.75;;
62463;SDS011;48512;48.552;9.380;2024-03-17T10:25:51;6.97;;;5.03;;
62463;SDS011;48512;48.552;9.380;2024-03-17T10:28:17;8.32;;;5.40;;
62463;SDS011;48512;48.552;9.380;2024-03-17T10:30:58;9.00;;;4.85;;
62463;SDS011;48512;48.552;9.380;2024-03-17T10:33:26;14.60;;;5.78;;
62463;SDS011;48512;48.552;9.380;2024-03-17T10:35:59;9.60;;;5.25;;
62463;SDS011;48512;48.552;9.380;2024-03-17T10:38:27;8.20;;;5.10;;
62463;SDS011;48512;48.552;9.380;2024-03-17T10:40:54;7.72;;;5.53;;
62463;SDS011;48512;48.552;9.380;2024-03-17T10:43:20;14.38;;;4.97;;
62463;SDS011;48512;48.552;9.380;2024-03-17T10:45:51;7.78;;;4.90;;
62463;SDS011;48512;48.552;9.380;2024-03-17T10:48:20;7.55;;;5.03;;
62463;SDS011;48512;48.552;9.380;2024-03-17T10:50:48;8.90;;;5.15;;
62463;SDS011;48512;48.552;9.380;2024-03-17T10:53:16;8.52;;;5.40;;
62463;SDS011;48512;48.552;9.380;2024-03-17T10:55:54;13.10;;;5.35;;
62463;SDS011;48512;48.552;9.380;2024-03-17T11:01:13;6.40;;;3.83;;
62463;SDS011;48512;48.552;9.380;2024-03-17T11:03:40;9.70;;;4.85;;
62463;SDS011;48512;48.552;9.380;2024-03-17T11:06:07;9.05;;;4.78;;
62463;SDS011;48512;48.552;9.380;2024-03-17T11:08:34;5.30;;;3.55;;
62463;SDS011;48512;48.552;9.380;2024-03-17T11:11:01;7.95;;;3.25;;
62463;SDS011;48512;48.552;9.380;2024-03-17T11:13:29;9.07;;;2.90;;
62463;SDS011;48512;48.552;9.380;2024-03-17T11:15:57;4.70;;;2.53;;
62463;SDS011;48512;48.552;9.380;2024-03-17T11:21:00;6.40;;;2.70;;
62463;SDS011;48512;48.552;9.380;2024-03-17T11:23:33;4.97;;;2.40;;
62463;SDS011;48512;48.552;9.380;2024-03-17T11:26:00;7.90;;;2.63;;
62463;SDS011;48512;48.552;9.380;2024-03-17T11:34:01;9.63;;;3.63;;
62463;SDS011;48512;48.552;9.380;2024-03-17T11:36:32;5.40;;;3.03;;
62463;SDS011;48512;48.552;9.380;2024-03-17T11:39:03;5.75;;;2.80;;
62463;SDS011;48512;48.552;9.380;2024-03-17T11:41:43;7.75;;;3.03;;
62463;SDS011;48512;48.552;9.380;2024-03-17T11:44:23;13.45;;;4.60;;
62463;SDS011;48512;48.552;9.380;2024-03-17T11:49:33;11.48;;;3.38;;
62463;SDS011;48512;48.552;9.380;2024-03-17T11:54:37;7.50;;;2.67;;
62463;SDS011;48512;48.552;9.380;2024-03-17T11:57:05;9.40;;;3.05;;
62463;SDS011;48512;48.552;9.380;2024-03-17T11:59:35;7.63;;;3.22;;
62463;SDS011;48512;48.552;9.380;2024-03-17T12:04:46;7.53;;;3.03;;
62463;SDS011;48512;48.552;9.380;2024-03-17T12:07:13;7.70;;;3.05;;
62463;SDS011;48512;48.552;9.380;2024-03-17T12:09:41;8.35;;;2.80;;
62463;SDS011;48512;48.552;9.380;2024-03-17T12:12:09;8.95;;;2.95;;
62463;SDS011;48512;48.552;9.380;2024-03-17T12:14:37;7.20;;;2.77;;
62463;SDS011;48512;48.552;9.380;2024-03-17T12:17:06;9.50;;;2.60;;
62463;SDS011;48512;48.552;9.380;2024-03-17T12:19:36;8.35;;;2.60;;
62463;SDS011;48512;48.552;9.380;2024-03-17T12:22:04;7.47;;;2.63;;
62463;SDS011;48512;48.552;9.380;2024-03-17T12:24:34;5.72;;;2.35;;
62463;SDS011;48512;48.552;9.380;2024-03-17T12:27:05;5.90;;;2.42;;
62463;SDS011;48512;48.552;9.380;2024-03-17T12:32:13;3.95;;;1.90;;
62463;SDS011;48512;48.552;9.380;2024-03-17T12:34:49;3.28;;;1.70;;
62463;SDS011;48512;48.552;9.380;2024-03-17T12:37:20;3.75;;;1.80;;
62463;SDS011;48512;48.552;9.380;2024-03-17T12:40:02;4.90;;;2.10;;
62463;SDS011;48512;48.552;9.380;2024-03-17T12:42:29;4.53;;;1.48;;
62463;SDS011;48512;48.552;9.380;2024-03-17T12:44:58;5.47;;;1.70;;
62463;SDS011;48512;48.552;9.380;2024-03-17T12:47:28;5.30;;;2.00;;
62463;SDS011;48512;48.552;9.380;2024-03-17T12:49:56;7.78;;;2.25;;
62463;SDS011;48512;48.552;9.380;2024-03-17T12:52:27;3.42;;;1.33;;
62463;SDS011;48512;48.552;9.380;2024-03-17T12:55:03;4.45;;;1.33;;
62463;SDS011;48512;48.552;9.380;2024-03-17T12:58:10;3.47;;;1.77;;
62463;SDS011;48512;48.552;9.380;2024-03-17T13:03:29;5.47;;;1.70;;
62463;SDS011;48512;48.552;9.380;2024-03-17T13:05:59;5.85;;;1.83;;
62463;SDS011;48512;48.552;9.380;2024-03-17T13:08:25;5.63;;;1.73;;
62463;SDS011;48512;48.552;9.380;2024-03-17T13:10:52;3.42;;;1.63;;
62463;SDS011;48512;48.552;9.380;2024-03-17T13:13:18;4.95;;;1.27;;
62463;SDS011;48512;48.552;9.380;2024-03-17T13:15:44;2.70;;;1.38;;
62463;SDS011;48512;48.552;9.380;2024-03-17T13:18:17;6.13;;;1.30;;
62463;SDS011;48512;48.552;9.380;2024-03-17T13:20:45;3.22;;;1.33;;
62463;SDS011;48512;48.552;9.380;2024-03-17T13:23:11;2.90;;;1.48;;
62463;SDS011;48512;48.552;9.380;2024-03-17T13:25:38;4.32;;;1.70;;
62463;SDS011;48512;48.552;9.380;2024-03-17T13:28:05;5.35;;;1.60;;
62463;SDS011;48512;48.552;9.380;2024-03-17T13:30:33;4.97;;;1.52;;
62463;SDS011;48512;48.552;9.380;2024-03-17T13:33:02;5.15;;;1.88;;
62463;SDS011;48512;48.552;9.380;2024-03-17T13:35:35;3.40;;;1.60;;
62463;SDS011;48512;48.552;9.380;2024-03-17T13:38:08;3.80;;;1.40;;
62463;SDS011;48512;48.552;9.380;2024-03-17T13:40:36;4.43;;;1.50;;
62463;SDS011;48512;48.552;9.380;2024-03-17T13:43:04;3.83;;;1.50;;
62463;SDS011;48512;48.552;9.380;2024-03-17T13:45:37;5.13;;;1.42;;
62463;SDS011;48512;48.552;9.380;2024-03-17T13:48:05;4.30;;;1.60;;
62463;SDS011;48512;48.552;9.380;2024-03-17T13:50:37;5.13;;;1.52;;
62463;SDS011;48512;48.552;9.380;2024-03-17T13:53:10;3.03;;;1.33;;
62463;SDS011;48512;48.552;9.380;2024-03-17T13:55:36;6.80;;;1.67;;
62463;SDS011;48512;48.552;9.380;2024-03-17T13:58:03;4.57;;;2.00;;
62463;SDS011;48512;48.552;9.380;2024-03-17T14:00:30;4.32;;;1.67;;
62463;SDS011;48512;48.552;9.380;2024-03-17T14:03:05;4.18;;;1.35;;
62463;SDS011;48512;48.552;9.380;2024-03-17T14:05:31;5.05;;;1.92;;
62463;SDS011;48512;48.552;9.380;2024-03-17T14:08:00;4.25;;;1.40;;
62463;SDS011;48512;48.552;9.380;2024-03-17T14:10:27;4.38;;;1.75;;
62463;SDS011;48512;48.552;9.380;2024-03-17T14:12:53;3.35;;;1.38;;
62463;SDS011;48512;48.552;9.380;2024-03-17T14:15:19;3.50;;;1.38;;
62463;SDS011;48512;48.552;9.380;2024-03-17T14:17:46;5.40;;;1.40;;
62463;SDS011;48512;48.552;9.380;2024-03-17T14:20:13;4.13;;;1.38;;
62463;SDS011;48512;48.552;9.380;2024-03-17T14:22:40;2.72;;;1.20;;
62463;SDS011;48512;48.552;9.380;2024-03-17T14:25:08;3.80;;;1.63;;
62463;SDS011;48512;48.552;9.380;2024-03-17T14:27:44;4.25;;;1.80;;
62463;SDS011;48512;48.552;9.380;2024-03-17T14:30:14;3.22;;;1.45;;
62463;SDS011;48512;48.552;9.380;2024-03-17T14:32:42;2.22;;;1.02;;
62463;SDS011;48512;48.552;9.380;2024-03-17T14:35:18;3.80;;;1.10;;
62463;SDS011;48512;48.552;9.380;2024-03-17T14:37:46;3.38;;;1.33;;
62463;SDS011;48512;48.552;9.380;2024-03-17T14:40:16;2.70;;;1.30;;
62463;SDS011;48512;48.552;9.380;2024-03-17T14:42:50;3.00;;;1.23;;
62463;SDS011;48512;48.552;9.380;2024-03-17T14:45:17;8.35;;;3.70;;
62463;SDS011;48512;48.552;9.380;2024-03-17T14:47:44;13.07;;;7.55;;
62463;SDS011;48512;48.552;9.380;2024-03-17T14:50:10;6.85;;;2.47;;
62463;SDS011;48512;48.552;9.380;2024-03-17T14:52:42;5.47;;;2.30;;
62463;SDS011;48512;48.552;9.380;2024-03-17T14:55:09;2.75;;;1.40;;
62463;SDS011;48512;48.552;9.380;2024-03-17T14:57:39;5.38;;;1.63;;
62463;SDS011;48512;48.552;9.380;2024-03-17T15:00:06;3.22;;;1.38;;
62463;SDS011;48512;48.552;9.380;2024-03-17T15:02:43;2.58;;;1.00;;
62463;SDS011;48512;48.552;9.380;2024-03-17T15:05:10;3.80;;;1.35;;
62463;SDS011;48512;48.552;9.380;2024-03-17T15:07:36;3.80;;;1.17;;
62463;SDS011;48512;48.552;9.380;2024-03-17T15:10:04;2.75;;;1.20;;
62463;SDS011;48512;48.552;9.380;2024-03-17T15:12:31;4.00;;;1.40;;
62463;SDS011;48512;48.552;9.380;2024-03-17T15:14:57;3.17;;;1.10;;
62463;SDS011;48512;48.552;9.380;2024-03-17T15:17:23;3.50;;;1.50;;
62463;SDS011;48512;48.552;9.380;2024-03-17T15:19:49;3.17;;;1.48;;
62463;SDS011;48512;48.552;9.380;2024-03-17T15:22:16;3.83;;;1.17;;